createdAt,value
2023-05-24T18:14:13.413Z,53.92
2023-05-24T18:16:41.481Z,53.13
2023-05-24T18:19:09.483Z,42.70
2023-05-24T18:21:37.500Z,41.33
2023-05-24T18:24:05.447Z,38.92
2023-05-24T18:26:33.406Z,34.92
2023-05-24T18:29:01.303Z,35.42
2023-05-24T18:31:30.635Z,34.35
2023-05-24T18:34:00.845Z,30.65
2023-05-24T18:36:29.542Z,31.70
2023-05-24T18:38:57.446Z,25.65
2023-05-24T18:41:25.364Z,26.33
2023-05-24T18:43:53.260Z,27.67
2023-05-24T18:46:21.317Z,27.73
2023-05-24T18:48:50.753Z,21.10
2023-05-24T18:51:18.659Z,23.08
2023-05-24T18:53:46.592Z,21.55
2023-05-24T18:56:14.981Z,21.38
2023-05-24T18:58:45.350Z,22.52
2023-05-24T19:01:13.726Z,24.33
2023-05-24T19:03:41.941Z,20.58
2023-05-24T19:06:12.829Z,20.50
2023-05-24T19:08:40.913Z,20.67
2023-05-24T19:11:11.033Z,19.00
2023-05-24T19:13:39.799Z,19.25
2023-05-24T19:16:08.005Z,21.35
2023-05-24T19:18:36.245Z,20.77
2023-05-24T19:21:04.286Z,18.67
2023-05-24T19:23:33.569Z,19.92
2023-05-24T19:26:01.504Z,16.55
2023-05-24T19:28:29.464Z,18.17
2023-05-24T19:31:01.070Z,18.85
2023-05-24T19:33:29.133Z,22.58
2023-05-24T19:35:57.085Z,16.90
2023-05-24T19:38:25.038Z,20.15
2023-05-24T19:40:54.333Z,17.00
2023-05-24T19:43:22.240Z,16.02
2023-05-24T19:45:53.601Z,15.52
2023-05-24T19:48:21.697Z,17.48
2023-05-24T19:50:49.666Z,11.38
2023-05-24T19:53:18.061Z,17.27
2023-05-24T19:55:46.216Z,13.23
2023-05-24T19:58:15.726Z,16.60
2023-05-24T20:00:43.670Z,13.85
2023-05-24T20:03:11.954Z,12.95
2023-05-24T20:05:40.672Z,10.40
2023-05-24T20:08:08.705Z,10.55
2023-05-24T20:10:38.786Z,11.55
2023-05-24T20:13:07.049Z,9.07
2023-05-24T20:15:36.406Z,9.43
2023-05-24T20:18:04.538Z,12.27
2023-05-24T20:20:32.515Z,7.03
2023-05-24T20:23:00.565Z,9.38
2023-05-24T20:25:28.553Z,12.32
2023-05-24T20:27:56.440Z,8.50
2023-05-24T20:30:24.610Z,10.90
2023-05-24T20:32:53.948Z,12.15
2023-05-24T20:35:21.854Z,9.70
2023-05-24T20:37:49.749Z,6.00
2023-05-24T20:40:22.705Z,10.60
2023-05-24T20:42:50.784Z,13.02
2023-05-24T20:45:18.731Z,8.30
2023-05-24T20:47:46.817Z,7.28
2023-05-24T20:50:16.117Z,12.38
2023-05-24T20:52:44.229Z,5.63
2023-05-24T20:55:12.459Z,4.90
2023-05-24T20:57:40.493Z,19.08
2023-05-24T21:00:10.073Z,13.38
2023-05-24T21:02:38.329Z,8.93
2023-05-24T21:05:06.900Z,4.57
2023-05-24T21:07:36.182Z,9.07
2023-05-24T21:10:04.156Z,2.90
2023-05-24T21:12:32.050Z,6.03
2023-05-24T21:14:59.936Z,3.92
2023-05-24T21:17:27.842Z,4.10
2023-05-24T21:19:55.803Z,5.70
2023-05-24T21:22:23.772Z,7.75
2023-05-24T21:24:53.022Z,8.43
2023-05-24T21:27:21.178Z,3.22
2023-05-24T21:29:49.531Z,4.90
2023-05-24T21:32:17.508Z,8.15
2023-05-24T21:34:45.415Z,2.58
2023-05-24T21:37:13.389Z,3.40
2023-05-24T21:39:43.602Z,4.10
2023-05-24T21:42:12.908Z,3.85
2023-05-24T21:44:40.869Z,3.05
2023-05-24T21:47:08.777Z,2.72
2023-05-24T21:49:36.703Z,11.07
2023-05-24T21:52:04.872Z,4.32
2023-05-24T21:54:32.810Z,5.97
2023-05-24T21:57:01.458Z,7.28
2023-05-24T21:59:30.767Z,3.33
2023-05-24T22:01:58.714Z,4.97
2023-05-24T22:04:26.711Z,6.07
2023-05-24T22:06:54.608Z,3.90
2023-05-24T22:09:22.548Z,2.80
2023-05-24T22:11:50.567Z,3.45
2023-05-24T22:14:18.448Z,6.60
2023-05-24T22:16:47.760Z,10.27
2023-05-24T22:19:18.354Z,4.60
2023-05-24T22:21:52.064Z,2.40
2023-05-24T22:24:19.981Z,1.70
2023-05-24T22:26:47.929Z,2.75
2023-05-24T22:29:16.141Z,2.95
2023-05-24T22:31:44.122Z,2.17
2023-05-24T22:34:14.209Z,5.50
2023-05-24T22:36:42.999Z,2.80
2023-05-24T22:39:10.928Z,1.90
2023-05-24T22:41:38.933Z,3.22
2023-05-24T22:44:06.819Z,3.33
2023-05-24T22:46:34.755Z,2.67
2023-05-24T22:49:05.827Z,2.67
2023-05-24T22:51:35.150Z,2.08
2023-05-24T22:54:03.197Z,6.93
2023-05-24T22:56:32.238Z,1.50
2023-05-24T22:59:00.157Z,6.10
2023-05-24T23:01:28.190Z,1.65
